createdAt,value
2023-02-02T00:01:33.422Z,0.70
2023-02-02T00:04:01.552Z,0.60
2023-02-02T00:06:30.678Z,0.60
2023-02-02T00:09:01.016Z,0.60
2023-02-02T00:11:29.131Z,0.60
2023-02-02T00:13:56.820Z,0.60
2023-02-02T00:16:27.651Z,0.70
2023-02-02T00:19:00.789Z,0.70
2023-02-02T00:21:32.008Z,0.80
2023-02-02T00:23:59.677Z,0.80
2023-02-02T00:26:27.502Z,0.80
2023-02-02T00:28:55.263Z,0.70
2023-02-02T00:31:23.523Z,0.70
2023-02-02T00:33:51.895Z,0.60
2023-02-02T00:36:21.106Z,0.60
2023-02-02T00:38:50.187Z,0.70
2023-02-02T00:41:17.889Z,0.70
2023-02-02T00:44:06.110Z,0.80
2023-02-02T00:46:34.067Z,0.80
2023-02-02T00:49:01.669Z,0.80
2023-02-02T00:51:29.299Z,0.80
2023-02-02T00:53:56.900Z,0.80
2023-02-02T00:56:25.987Z,0.70
2023-02-02T00:58:54.017Z,0.70
2023-02-02T01:01:22.741Z,0.80
2023-02-02T01:03:51.081Z,0.80
2023-02-02T01:06:19.122Z,0.80
2023-02-02T01:08:47.144Z,0.70
2023-02-02T01:11:15.200Z,0.70
2023-02-02T01:13:43.821Z,0.70
2023-02-02T01:16:12.459Z,0.70
2023-02-02T01:18:40.849Z,0.60
2023-02-02T01:21:11.179Z,0.60
2023-02-02T01:23:39.391Z,0.60
2023-02-02T01:26:09.474Z,0.60
2023-02-02T01:28:37.656Z,0.60
2023-02-02T01:31:11.674Z,0.60
2023-02-02T01:33:39.915Z,0.60
2023-02-02T01:36:12.025Z,0.60
2023-02-02T01:38:40.285Z,0.70
2023-02-02T01:41:08.478Z,0.70
2023-02-02T01:43:43.158Z,0.70
2023-02-02T01:46:12.800Z,0.60
2023-02-02T01:48:44.237Z,0.70
2023-02-02T01:51:25.528Z,0.60
2023-02-02T01:53:56.083Z,0.60
2023-02-02T01:56:32.577Z,0.60
2023-02-02T01:59:01.327Z,0.60
2023-02-02T02:01:29.095Z,0.60
2023-02-02T02:03:56.959Z,0.70
2023-02-02T02:06:26.691Z,0.70
2023-02-02T02:09:02.861Z,0.60
2023-02-02T02:11:31.717Z,0.70
2023-02-02T02:14:21.629Z,0.60
2023-02-02T02:17:04.166Z,0.70
2023-02-02T02:20:15.454Z,0.70
2023-02-02T02:23:18.244Z,0.60
2023-02-02T02:26:35.433Z,0.80
2023-02-02T02:29:14.948Z,0.70
2023-02-02T02:31:42.668Z,0.70
2023-02-02T02:34:27.043Z,0.70
2023-02-02T02:37:12.475Z,0.70
2023-02-02T02:39:49.603Z,0.70
2023-02-02T02:42:22.587Z,0.70
2023-02-02T02:44:53.257Z,0.70
2023-02-02T02:47:22.241Z,0.70
2023-02-02T02:49:50.038Z,0.80
2023-02-02T02:52:17.620Z,0.80
2023-02-02T02:54:52.719Z,0.70
2023-02-02T02:57:45.265Z,0.70
2023-02-02T03:00:28.064Z,0.70
2023-02-02T03:03:07.728Z,0.70
2023-02-02T03:06:12.834Z,0.70
2023-02-02T03:08:47.590Z,0.70
2023-02-02T03:11:16.710Z,0.70
2023-02-02T03:13:44.788Z,0.70
2023-02-02T03:16:12.561Z,0.70
2023-02-02T03:18:40.223Z,0.70
2023-02-02T03:21:11.893Z,0.70
2023-02-02T03:23:39.908Z,0.60
2023-02-02T03:26:07.730Z,0.70
2023-02-02T03:28:35.962Z,0.70
2023-02-02T03:31:03.934Z,0.70
2023-02-02T03:33:35.808Z,0.70
2023-02-02T03:36:03.803Z,0.70
2023-02-02T03:38:31.447Z,0.60
2023-02-02T03:40:59.170Z,0.60
2023-02-02T03:43:30.010Z,0.70
2023-02-02T03:45:59.871Z,0.70
2023-02-02T03:48:27.819Z,0.70
2023-02-02T03:50:55.669Z,0.70
2023-02-02T03:53:24.176Z,0.80
2023-02-02T03:55:51.832Z,0.70
2023-02-02T03:58:22.358Z,0.80
2023-02-02T04:00:50.419Z,0.80
2023-02-02T04:03:18.173Z,0.90
2023-02-02T04:05:50.180Z,0.80
2023-02-02T04:08:18.214Z,0.70
2023-02-02T04:10:55.322Z,0.60
2023-02-02T04:13:23.395Z,0.70
2023-02-02T04:15:59.119Z,0.70
2023-02-02T04:18:27.731Z,0.70
2023-02-02T04:21:02.168Z,0.70
2023-02-02T04:23:30.601Z,0.70
2023-02-02T04:25:59.124Z,0.70
2023-02-02T04:28:27.788Z,0.80
2023-02-02T04:30:56.262Z,0.80
2023-02-02T04:33:25.485Z,0.80
2023-02-02T04:35:53.403Z,0.80
2023-02-02T04:38:21.427Z,0.80
2023-02-02T04:40:49.267Z,0.70
2023-02-02T04:43:17.247Z,0.70
2023-02-02T04:45:45.265Z,0.70
2023-02-02T04:48:13.018Z,0.70
2023-02-02T04:50:40.599Z,0.70
2023-02-02T04:53:08.305Z,0.70
2023-02-02T04:55:39.050Z,0.70
2023-02-02T04:58:06.814Z,0.70
2023-02-02T05:00:37.246Z,0.70
2023-02-02T05:03:04.960Z,0.70
2023-02-02T05:05:32.594Z,0.70
2023-02-02T05:08:00.211Z,0.70
2023-02-02T05:10:28.166Z,0.80
2023-02-02T05:12:56.403Z,0.80
2023-02-02T05:15:24.349Z,0.80
2023-02-02T05:17:52.128Z,0.70
2023-02-02T05:20:19.809Z,0.70
2023-02-02T05:22:49.928Z,0.70
2023-02-02T05:25:18.111Z,0.70
2023-02-02T05:27:46.851Z,0.70
2023-02-02T05:30:15.095Z,0.70
2023-02-02T05:32:45.753Z,0.80
2023-02-02T05:35:13.433Z,0.70
2023-02-02T05:37:42.978Z,0.80
2023-02-02T05:40:11.444Z,0.80
2023-02-02T05:42:39.077Z,0.80
2023-02-02T05:45:07.932Z,0.80
2023-02-02T05:47:35.790Z,0.90
2023-02-02T05:50:03.556Z,0.90
2023-02-02T05:52:34.101Z,0.80
2023-02-02T05:55:02.202Z,0.80
2023-02-02T05:57:29.901Z,0.80
2023-02-02T05:59:57.551Z,0.90
2023-02-02T06:02:25.212Z,0.90
2023-02-02T06:04:52.828Z,0.90
2023-02-02T06:07:20.514Z,0.80
2023-02-02T06:09:48.121Z,0.90
2023-02-02T06:12:15.987Z,0.90
2023-02-02T06:14:43.621Z,0.80
2023-02-02T06:17:11.265Z,0.90
2023-02-02T06:19:38.911Z,0.90
2023-02-02T06:22:07.321Z,0.80
2023-02-02T06:24:35.049Z,0.90
2023-02-02T06:27:02.723Z,0.90
2023-02-02T06:29:30.404Z,0.90
2023-02-02T06:31:58.548Z,0.90
2023-02-02T06:34:26.241Z,0.90
2023-02-02T06:36:53.858Z,0.90
2023-02-02T06:39:21.553Z,0.90
2023-02-02T06:41:49.225Z,0.90
2023-02-02T06:44:16.961Z,0.90
2023-02-02T06:46:45.534Z,0.90
2023-02-02T06:49:13.414Z,0.90
2023-02-02T06:51:41.146Z,0.90
2023-02-02T06:54:08.722Z,1.00
2023-02-02T06:56:36.451Z,1.00
2023-02-02T06:59:04.138Z,1.00
2023-02-02T07:01:32.506Z,1.00
2023-02-02T07:04:00.176Z,1.10
2023-02-02T07:06:29.101Z,1.10
2023-02-02T07:09:01.540Z,1.20
2023-02-02T07:11:34.703Z,1.10
2023-02-02T07:14:03.643Z,1.20
2023-02-02T07:16:34.990Z,1.20
2023-02-02T07:19:02.768Z,1.20
2023-02-02T07:21:36.880Z,1.30
2023-02-02T07:24:05.899Z,1.20
2023-02-02T07:26:35.959Z,1.20
2023-02-02T07:29:06.894Z,1.30
2023-02-02T07:31:36.650Z,1.30
2023-02-02T07:34:04.697Z,1.30
2023-02-02T07:36:35.392Z,1.30
2023-02-02T07:39:05.408Z,1.40
2023-02-02T07:41:35.577Z,1.30
2023-02-02T07:44:05.093Z,1.40
2023-02-02T07:46:43.824Z,1.40
2023-02-02T07:49:17.159Z,1.50
2023-02-02T07:51:47.797Z,1.50
2023-02-02T07:54:15.934Z,1.50
2023-02-02T07:56:43.707Z,1.60
2023-02-02T07:59:11.870Z,1.60
2023-02-02T08:01:42.418Z,1.70
2023-02-02T08:04:10.070Z,1.70
2023-02-02T08:06:39.730Z,1.60
2023-02-02T08:09:09.014Z,1.70
2023-02-02T08:11:38.159Z,1.70
2023-02-02T08:14:06.508Z,1.70
2023-02-02T08:16:34.914Z,1.70
2023-02-02T08:19:02.649Z,1.80
2023-02-02T08:21:33.907Z,1.70
2023-02-02T08:24:02.628Z,1.80
2023-02-02T08:26:33.681Z,1.80
2023-02-02T08:29:05.146Z,1.80
2023-02-02T08:31:36.187Z,1.80
2023-02-02T08:34:04.977Z,1.80
2023-02-02T08:36:35.462Z,1.90
2023-02-02T08:39:06.205Z,1.80
2023-02-02T08:41:34.571Z,1.80
2023-02-02T08:44:05.120Z,1.70
2023-02-02T08:46:35.115Z,1.80
2023-02-02T08:49:05.403Z,1.80
2023-02-02T08:51:33.034Z,1.80
2023-02-02T08:54:00.713Z,1.90
2023-02-02T08:56:28.507Z,1.90
2023-02-02T08:58:58.904Z,1.90
2023-02-02T09:01:29.175Z,2.00
2023-02-02T09:03:59.416Z,2.10
2023-02-02T09:06:31.503Z,2.10
2023-02-02T09:08:59.280Z,2.20
2023-02-02T09:11:27.365Z,2.20
2023-02-02T09:13:57.290Z,2.30
2023-02-02T09:16:26.660Z,2.00
2023-02-02T09:18:56.673Z,2.00
2023-02-02T09:21:24.796Z,2.00
2023-02-02T09:23:54.017Z,2.10
2023-02-02T09:26:26.281Z,2.00
2023-02-02T09:29:05.455Z,2.00
2023-02-02T09:31:36.171Z,2.00
2023-02-02T09:34:05.946Z,2.10
2023-02-02T09:36:34.533Z,2.10
2023-02-02T09:39:02.346Z,2.10
2023-02-02T09:41:38.859Z,2.20
2023-02-02T09:44:21.943Z,2.20
2023-02-02T09:47:13.983Z,2.30
2023-02-02T09:49:51.744Z,2.30
2023-02-02T09:52:49.088Z,2.30
2023-02-02T09:55:35.714Z,2.30
2023-02-02T09:58:10.900Z,2.20
2023-02-02T10:00:46.240Z,2.10
2023-02-02T10:03:19.541Z,2.10
2023-02-02T10:06:17.554Z,2.20
2023-02-02T10:08:52.419Z,2.40
2023-02-02T10:11:25.760Z,2.40
2023-02-02T10:13:57.796Z,2.30
2023-02-02T10:16:28.922Z,2.30
2023-02-02T10:19:11.196Z,2.30
2023-02-02T10:21:44.921Z,2.40
2023-02-02T10:24:27.985Z,2.40
2023-02-02T10:27:07.155Z,2.40
2023-02-02T10:29:58.970Z,2.40
2023-02-02T10:32:34.939Z,2.40
2023-02-02T10:35:20.192Z,2.30
2023-02-02T10:38:11.905Z,2.30
2023-02-02T10:40:51.677Z,2.40
2023-02-02T10:43:50.761Z,2.40
2023-02-02T10:46:42.788Z,2.50
2023-02-02T10:49:20.950Z,2.60
2023-02-02T10:51:58.089Z,2.60
2023-02-02T10:54:54.839Z,2.60
2023-02-02T10:57:51.860Z,2.40
2023-02-02T11:00:23.093Z,2.60
2023-02-02T11:02:52.579Z,2.70
2023-02-02T11:05:45.004Z,2.80
2023-02-02T11:08:15.610Z,2.70
2023-02-02T11:10:45.213Z,2.70
2023-02-02T11:13:20.054Z,2.70
2023-02-02T11:15:47.708Z,2.90
2023-02-02T11:18:28.958Z,2.90
2023-02-02T11:20:57.678Z,3.00
2023-02-02T11:23:28.550Z,3.00
2023-02-02T11:26:05.395Z,2.90
2023-02-02T11:28:36.231Z,3.00
2023-02-02T11:31:04.360Z,2.90
2023-02-02T11:33:34.917Z,2.90
2023-02-02T11:36:19.777Z,2.90
2023-02-02T11:38:47.457Z,2.70
2023-02-02T11:41:17.135Z,2.60
2023-02-02T11:43:53.841Z,2.60
2023-02-02T11:46:31.248Z,2.50
2023-02-02T11:49:14.069Z,2.40
2023-02-02T11:51:43.395Z,2.40
2023-02-02T11:54:26.215Z,2.30
2023-02-02T11:56:56.876Z,2.30
2023-02-02T11:59:41.024Z,2.30
2023-02-02T12:02:23.826Z,2.30
2023-02-02T12:05:12.009Z,2.20
2023-02-02T12:07:41.209Z,2.30
2023-02-02T12:10:29.999Z,2.30
2023-02-02T12:13:17.899Z,2.30
2023-02-02T12:15:45.445Z,2.20
2023-02-02T12:18:44.876Z,2.20
2023-02-02T12:21:28.188Z,2.20
2023-02-02T12:24:25.517Z,2.20
2023-02-02T12:27:02.339Z,2.20
2023-02-02T12:30:08.943Z,2.10
2023-02-02T12:33:08.226Z,2.10
2023-02-02T12:35:56.491Z,2.10
2023-02-02T12:38:55.433Z,2.10
2023-02-02T12:41:54.440Z,2.00
2023-02-02T12:45:00.090Z,2.00
2023-02-02T12:47:32.062Z,2.00
2023-02-02T12:50:37.591Z,2.00
2023-02-02T12:53:29.164Z,2.10
2023-02-02T12:56:33.122Z,2.00
2023-02-02T12:59:24.287Z,2.00
2023-02-02T13:02:19.817Z,2.00
2023-02-02T13:04:59.359Z,2.10
2023-02-02T13:07:38.244Z,2.00
2023-02-02T13:10:17.660Z,2.00
2023-02-02T13:12:53.622Z,2.00
2023-02-02T13:15:24.295Z,1.90
2023-02-02T13:17:57.847Z,1.90
2023-02-02T13:20:37.869Z,1.90
2023-02-02T13:23:27.582Z,1.90
2023-02-02T13:26:04.578Z,1.90
2023-02-02T13:28:45.270Z,2.00
2023-02-02T13:31:24.246Z,1.90
2023-02-02T13:34:14.649Z,1.90
2023-02-02T13:36:47.855Z,1.90
2023-02-02T13:39:21.588Z,1.90
2023-02-02T13:41:49.944Z,1.90
2023-02-02T13:44:32.964Z,1.90
2023-02-02T13:47:03.689Z,2.00
2023-02-02T13:49:44.868Z,1.90
2023-02-02T13:52:32.316Z,1.90
2023-02-02T13:55:27.953Z,1.90
2023-02-02T13:58:38.069Z,1.90
2023-02-02T14:01:11.116Z,2.00
2023-02-02T14:03:56.536Z,1.90
2023-02-02T14:06:29.788Z,1.90
2023-02-02T14:09:04.150Z,1.90
2023-02-02T14:11:39.133Z,1.90
2023-02-02T14:14:29.617Z,1.90
2023-02-02T14:16:57.433Z,1.90
2023-02-02T14:19:33.148Z,1.80
2023-02-02T14:22:15.024Z,1.80
2023-02-02T14:25:01.583Z,1.80
2023-02-02T14:31:26.231Z,1.70
2023-02-02T14:34:29.045Z,1.80
2023-02-02T14:38:00.246Z,1.80
2023-02-02T14:40:57.713Z,1.70
2023-02-02T14:43:45.987Z,1.70
2023-02-02T14:46:25.166Z,1.70
2023-02-02T14:49:02.106Z,1.70
2023-02-02T14:51:35.360Z,1.70
2023-02-02T14:54:08.620Z,1.70
2023-02-02T14:56:40.374Z,1.70
2023-02-02T14:59:20.178Z,1.70
2023-02-02T15:02:23.598Z,1.70
2023-02-02T15:04:51.486Z,1.60
2023-02-02T15:07:25.181Z,1.60
2023-02-02T15:10:01.894Z,1.70
2023-02-02T15:12:40.914Z,1.70
2023-02-02T15:15:18.013Z,1.70
2023-02-02T15:17:54.341Z,1.70
2023-02-02T15:20:32.962Z,1.70
2023-02-02T15:23:02.946Z,1.70
2023-02-02T15:25:36.105Z,1.70
2023-02-02T15:28:39.532Z,1.70
2023-02-02T15:31:46.780Z,1.70
2023-02-02T15:34:48.842Z,1.70
2023-02-02T15:37:24.638Z,1.70
2023-02-02T15:39:56.381Z,1.60
2023-02-02T15:42:53.151Z,1.60
2023-02-02T15:45:55.101Z,1.70
2023-02-02T15:48:31.501Z,1.60
2023-02-02T15:51:17.602Z,1.60
2023-02-02T15:53:51.414Z,1.60
2023-02-02T15:56:24.920Z,1.60
2023-02-02T15:58:55.271Z,1.60
2023-02-02T16:01:24.408Z,1.60
2023-02-02T16:04:14.101Z,1.60
2023-02-02T16:06:43.017Z,1.60
2023-02-02T16:09:22.981Z,1.60
2023-02-02T16:11:51.053Z,1.60
2023-02-02T16:14:20.018Z,1.60
2023-02-02T16:16:49.583Z,1.60
2023-02-02T16:19:27.894Z,1.60
2023-02-02T16:22:06.017Z,1.60
2023-02-02T16:24:37.130Z,1.60
2023-02-02T16:27:14.863Z,1.60
2023-02-02T16:29:42.858Z,1.60
2023-02-02T16:32:31.167Z,1.60
2023-02-02T16:35:00.353Z,1.60
2023-02-02T16:37:32.487Z,1.60
2023-02-02T16:40:39.094Z,1.60
2023-02-02T16:43:28.497Z,1.60
2023-02-02T16:45:59.576Z,1.70
2023-02-02T16:48:32.619Z,1.60
2023-02-02T16:51:09.056Z,1.60
2023-02-02T16:53:37.322Z,1.60
2023-02-02T16:56:06.969Z,1.60
2023-02-02T16:58:40.708Z,1.60
2023-02-02T17:01:15.810Z,1.60
2023-02-02T17:03:53.395Z,1.60
2023-02-02T17:06:51.968Z,1.60
2023-02-02T17:09:41.984Z,1.60
2023-02-02T17:12:30.682Z,1.60
2023-02-02T17:15:21.130Z,1.60
2023-02-02T17:17:49.587Z,1.60
2023-02-02T17:20:19.339Z,1.70
2023-02-02T17:22:50.816Z,1.70
2023-02-02T17:25:25.766Z,1.60
2023-02-02T17:27:55.127Z,1.60
2023-02-02T17:30:22.989Z,1.60
2023-02-02T17:32:50.609Z,1.60
2023-02-02T17:35:24.375Z,1.70
2023-02-02T17:37:52.848Z,1.70
2023-02-02T17:40:23.174Z,1.70
2023-02-02T17:42:52.941Z,1.70
2023-02-02T17:45:24.430Z,1.60
2023-02-02T17:47:52.256Z,1.70
2023-02-02T17:50:21.537Z,1.70
2023-02-02T17:52:50.247Z,1.70
2023-02-02T17:55:27.771Z,1.70
2023-02-02T17:57:55.499Z,1.70
2023-02-02T18:00:25.337Z,1.70
2023-02-02T18:03:00.736Z,1.70
2023-02-02T18:05:28.754Z,1.70
2023-02-02T18:07:56.360Z,1.70
2023-02-02T18:10:26.407Z,1.70
2023-02-02T18:12:56.677Z,1.70
2023-02-02T18:15:24.560Z,1.70
2023-02-02T18:17:52.211Z,1.70
2023-02-02T18:20:20.647Z,1.70
2023-02-02T18:22:48.698Z,1.70
2023-02-02T18:25:16.364Z,1.70
2023-02-02T18:27:44.741Z,1.70
2023-02-02T18:30:13.240Z,1.70
2023-02-02T18:32:41.771Z,1.70
2023-02-02T18:35:10.811Z,1.60
2023-02-02T18:37:38.861Z,1.70
2023-02-02T18:40:07.980Z,1.70
2023-02-02T18:42:36.128Z,1.70
2023-02-02T18:45:05.380Z,1.70
2023-02-02T18:47:32.956Z,1.60
2023-02-02T18:50:01.007Z,1.60
2023-02-02T18:52:35.075Z,1.70
2023-02-02T18:55:02.687Z,1.70
2023-02-02T18:57:30.636Z,1.70
2023-02-02T18:59:58.114Z,1.70
2023-02-02T19:02:26.434Z,1.60
2023-02-02T19:05:12.493Z,1.60
2023-02-02T19:07:55.147Z,1.60
2023-02-02T19:10:27.034Z,1.60
2023-02-02T19:12:56.468Z,1.60
2023-02-02T19:15:27.770Z,1.60
2023-02-02T19:17:57.844Z,1.60
2023-02-02T19:20:30.425Z,1.60
2023-02-02T19:23:32.792Z,1.60
2023-02-02T19:26:00.352Z,1.60
2023-02-02T19:28:31.019Z,1.60
2023-02-02T19:31:04.596Z,1.60
2023-02-02T19:33:40.443Z,1.60
2023-02-02T19:36:20.601Z,1.60
2023-02-02T19:38:49.609Z,1.60
2023-02-02T19:41:25.834Z,1.60
2023-02-02T19:44:01.300Z,1.60
2023-02-02T19:46:31.154Z,1.60
2023-02-02T19:49:13.266Z,1.60
2023-02-02T19:51:45.475Z,1.60
2023-02-02T19:54:40.967Z,1.60
2023-02-02T19:57:24.439Z,1.60
2023-02-02T19:59:52.698Z,1.60
2023-02-02T20:02:35.792Z,1.60
2023-02-02T20:05:18.046Z,1.70
2023-02-02T20:07:46.301Z,1.70
2023-02-02T20:10:39.541Z,1.70
2023-02-02T20:13:23.628Z,1.70
2023-02-02T20:15:54.641Z,1.60
2023-02-02T20:18:45.239Z,1.60
2023-02-02T20:21:34.622Z,1.60
2023-02-02T20:24:02.918Z,1.60
2023-02-02T20:26:36.232Z,1.60
2023-02-02T20:29:27.938Z,1.60
2023-02-02T20:31:58.269Z,1.60
2023-02-02T20:34:30.538Z,1.60
2023-02-02T20:37:05.488Z,1.60
2023-02-02T20:39:40.335Z,1.60
2023-02-02T20:42:07.980Z,1.60
2023-02-02T20:44:36.054Z,1.60
2023-02-02T20:47:03.897Z,1.70
2023-02-02T20:49:31.998Z,1.70
2023-02-02T20:52:02.168Z,1.70
2023-02-02T20:54:31.129Z,1.70
2023-02-02T20:57:02.162Z,1.70
2023-02-02T20:59:30.119Z,1.70
2023-02-02T21:01:58.848Z,1.70
2023-02-02T21:04:26.390Z,1.70
2023-02-02T21:06:55.388Z,1.70
2023-02-02T21:09:23.051Z,1.70
2023-02-02T21:11:53.053Z,1.70
2023-02-02T21:14:20.631Z,1.70
2023-02-02T21:16:48.200Z,1.70
2023-02-02T21:19:15.819Z,1.70
2023-02-02T21:21:43.429Z,1.60
2023-02-02T21:24:10.978Z,1.60
2023-02-02T21:26:38.919Z,1.70
2023-02-02T21:29:06.593Z,1.70
2023-02-02T21:31:39.696Z,1.60
2023-02-02T21:34:08.259Z,1.70
2023-02-02T21:36:37.348Z,1.70
2023-02-02T21:39:30.919Z,1.60
2023-02-02T21:42:08.867Z,1.60
2023-02-02T21:44:38.975Z,1.60
2023-02-02T21:47:23.914Z,1.60
2023-02-02T21:49:52.488Z,1.60
2023-02-02T21:52:20.473Z,1.60
2023-02-02T21:54:49.331Z,1.70
2023-02-02T21:57:36.388Z,1.70
2023-02-02T22:00:24.009Z,1.70
2023-02-02T22:02:53.548Z,1.70
2023-02-02T22:05:34.266Z,1.70
2023-02-02T22:08:13.917Z,1.70
2023-02-02T22:10:43.434Z,1.70
2023-02-02T22:13:16.937Z,1.70
2023-02-02T22:15:47.540Z,1.60
2023-02-02T22:18:22.990Z,1.70
2023-02-02T22:20:52.015Z,1.70
2023-02-02T22:23:21.803Z,1.60
2023-02-02T22:25:53.043Z,1.60
2023-02-02T22:28:40.952Z,1.70
2023-02-02T22:31:10.491Z,1.70
2023-02-02T22:33:38.188Z,1.70
2023-02-02T22:36:06.005Z,1.70
2023-02-02T22:38:33.550Z,1.70
2023-02-02T22:41:01.125Z,1.70
2023-02-02T22:43:28.700Z,1.70
2023-02-02T22:45:56.284Z,1.70
2023-02-02T22:48:23.969Z,1.70
2023-02-02T22:50:51.566Z,1.60
2023-02-02T22:53:19.143Z,1.70
2023-02-02T22:55:46.645Z,1.80
2023-02-02T22:58:14.265Z,1.80
2023-02-02T23:00:41.827Z,1.70
2023-02-02T23:03:09.448Z,1.70
2023-02-02T23:05:37.033Z,1.80
2023-02-02T23:08:04.691Z,1.70
2023-02-02T23:10:35.839Z,1.70
2023-02-02T23:13:04.755Z,1.70
2023-02-02T23:15:32.743Z,1.70
2023-02-02T23:18:00.432Z,1.70
2023-02-02T23:20:28.375Z,1.70
2023-02-02T23:22:56.122Z,1.80
2023-02-02T23:25:23.630Z,1.80
2023-02-02T23:27:51.204Z,1.80
2023-02-02T23:30:21.174Z,1.70
2023-02-02T23:32:49.036Z,1.70
2023-02-02T23:35:16.780Z,1.70
2023-02-02T23:37:44.436Z,1.70
2023-02-02T23:40:12.694Z,1.80
2023-02-02T23:42:40.337Z,1.80
2023-02-02T23:45:08.421Z,1.80
2023-02-02T23:47:36.182Z,1.80
2023-02-02T23:50:06.540Z,1.80
2023-02-02T23:52:35.058Z,1.90
2023-02-02T23:55:03.712Z,1.80
2023-02-02T23:57:33.788Z,1.90
